Pagrindinis puslapis
METAR-TAF:

METAR-TAF

Oro uostai :

Santa Marta, Kolumbija

platuma: 11-08N, ilguma: 074-14W, Aukštis: 4 m

Dabartinis oras

Ataskaita buvo paskelbta 53 minutes, ne 23:00 UTC
Vėjas 9 kt iš Šiaurės
Temperatūra 28°C
Drėgmė 79%
Slėgis 1009 hPa
Matomumas 10 km arba daugiau
Mažai debesys ne aukštis 2000 ft
Su prošvaistėmis ne aukštis 7000 ft
Liūtis kaimynystėje

METAR: SKSM 222300Z 01009KT 9999 VCSH FEW020 BKN070 28/24 A2980 REDZ

Laikas: 18:53 (23:53 UTC)


TAF: trūkstamas

Orai ataskaitas ir orų prognozės (METAR, TAF).

turimą stotys yra geltonos ir raudonos taškus žemėlapyje.

Perkelti pele per norėdami pamatyti stoties vardą.

Tada spustelėkite, norėdami matyti oro stebėjimo ir prognozės.

Norėdami pakeisti žemėlapį: spustelėkite ant žalios mygtukų su juodo kryžiaus žemyn,; žalią mygtuką su brūkšneliu, jei norite nutolinti; arba žalių rodyklių gretimoms žemėlapius.


METAR-TAF: